Terminal Aerodrome Forecast
Issued by NWS

Home | Current Version | Previous Version | Text Only | Print | Product List | Glossary On
Versions: 1 2 3 4 5 6 7 8 9 10 11 12 13 14 15 16 17 18 19 20 21 22 23 24
298
FTUS43 KOAX 241729
TAFSNY
TAF
KSNY 241729Z 2418/2518 14012G18KT P6SM BKN080
     FM242300 12010KT P6SM VCTS BKN080CB
      TEMPO 2423/2503 VRB25G35KT 3SM -TSRA BKN080CB
     FM250300 VRB06KT P6SM SCT100
     FM251500 30015G25KT P6SM SCT100=

USA.gov is the U.S. government's official web portal to all federal, state and local government web resources and services.